Grass Lake, MI (49240)

05:09 AM EST del 01 Febbraio 2015 (GMT -0500)
Stull Rd Grup | Change Station
CLOSE
Current Station
Stazione meteo personale
Location: Grass Lake, MI
Altitudine: 997 ft
Stazioni meteo nelle vicinanze
Avvisi attivi: Winter Storm Warning

Alt. 997 ft 42.29 °N, 84.26 °W | Updated 5 minutes ago

Neve
Neve
25.9 °F
Sembra 26 °F
N
1.1
Vento Variabile Vento da NO

Oggi
Massima -- | Minima -- °F
--% Possibilità di precip.
Ieri
Massima -- | Minima -- °F
Precip. -- in
7:50 AM 5:50 PM
Gobba a ponente, 94% visible
Pressione 30.13 in
Visibilità 1.2 miglia
Nuvole Alcuni 800 ft
Coperto 1600 ft
Raffreddamento del vento 26 °F
Punto di rugiada 24 °F
Umidità 92%
Piovosità 0.00 in
Spessore del manto nevoso Non disponibile.
Raggi UV 0 fuori da 12
Polline .10 fuori da 12
Qualità dell'aria Non disponibile.
Flu Activity Non disponibile.
SPECI KJXN 011004Z 05008KT 1 1/4SM -SN BR FEW008 OVC016 M04/M06 A3013 RMK AO2 P0000 T10391056

More Conditions Fewer Conditions

Pressione 30.13 in
Visibilità 1.2 miglia
Nuvole Alcuni 800 ft
Coperto 1600 ft
Raffreddamento del vento 26 °F
Punto di rugiada 24 °F
Umidità 92%
Piovosità 0.00 in
Spessore del manto nevoso Non disponibile.
Raggi UV 0 fuori da 12
Polline .10 fuori da 12
Qualità dell'aria Non disponibile.
Flu Activity Non disponibile.
SPECI KJXN 011004Z 05008KT 1 1/4SM -SN BR FEW008 OVC016 M04/M06 A3013 RMK AO2 P0000 T10391056

More Conditions Fewer Conditions

10-Day Weather Forecast

Almanac

Astronomia

Feb. 01, 2015 Alba Tramonto
Ora attuale
Crepuscolo civile
Crepuscolo nautico
Crepuscolo astronomico
Luna
Estensione della luce visibile
Lunghezza del giorno
Tomorrow will be .
, % of the Moon is Illuminated

Gli estremi di oggi

State Highs State Lows

Community

WunderPhotos

Upload Photos

1,792,330 foto caricate!

WunderBlogs® & News

Nearby

Qualità dell'aria

  Qualità dell'aria Indice AQ Inquinante
Not available.

Profondità neve

Stazione Profondità Altitudine

Attività sismica

Città  Distanza Mag. Data & Ora
Minimo Magnitudo Mostrato è 2.5.

Temperature delle acque costiere

Località Temperatura

Stazioni meteo nelle vicinanze